createdAt,value
2018-01-28T00:01:10.657Z,47.60
2018-01-28T00:06:38.939Z,46.77
2018-01-28T00:12:07.804Z,47.67
2018-01-28T00:17:36.811Z,45.27
2018-01-28T00:23:05.013Z,44.83
2018-01-28T00:28:33.225Z,42.60
2018-01-28T00:34:02.594Z,39.20
2018-01-28T00:39:32.756Z,47.40
2018-01-28T00:45:01.465Z,41.33
2018-01-28T00:50:30.416Z,30.97
2018-01-28T00:55:58.656Z,37.67
2018-01-28T01:01:27.102Z,34.37
2018-01-28T01:06:56.072Z,33.23
2018-01-28T01:12:24.279Z,35.80
2018-01-28T01:17:53.275Z,29.23
2018-01-28T01:23:21.471Z,32.83
2018-01-28T01:28:49.715Z,33.17
2018-01-28T01:34:17.948Z,33.00
2018-01-28T01:39:46.151Z,31.40
2018-01-28T01:45:14.413Z,29.33
2018-01-28T01:50:43.406Z,28.23
2018-01-28T01:56:12.412Z,27.90
2018-01-28T02:02:00.397Z,26.90
2018-01-28T02:07:28.603Z,26.03
2018-01-28T02:13:03.490Z,23.50
2018-01-28T02:18:32.531Z,23.13
2018-01-28T02:24:01.576Z,23.97
2018-01-28T02:29:29.790Z,26.63
2018-01-28T02:34:58.762Z,26.70
2018-01-28T02:40:26.956Z,25.63
2018-01-28T02:45:56.011Z,26.67
2018-01-28T02:51:24.238Z,26.30
2018-01-28T02:56:53.255Z,27.90
2018-01-28T03:02:21.479Z,23.17
2018-01-28T03:07:53.432Z,24.97
2018-01-28T03:13:21.648Z,28.20
2018-01-28T03:18:51.794Z,24.50
2018-01-28T03:24:20.254Z,24.13
2018-01-28T03:29:48.458Z,25.80
2018-01-28T03:35:16.673Z,25.13
2018-01-28T03:40:44.884Z,22.40
2018-01-28T03:46:13.176Z,25.83
2018-01-28T03:51:42.144Z,30.80
2018-01-28T03:57:10.355Z,24.43
2018-01-28T04:02:38.602Z,26.43
2018-01-28T04:08:06.833Z,27.10
2018-01-28T04:13:35.048Z,21.07
2018-01-28T04:19:03.678Z,23.53
2018-01-28T04:24:31.901Z,25.80
2018-01-28T04:30:00.083Z,19.40
2018-01-28T04:35:29.030Z,24.53
2018-01-28T04:40:58.016Z,25.07
2018-01-28T04:46:26.242Z,24.77
2018-01-28T04:51:54.475Z,22.50
2018-01-28T04:57:22.659Z,23.50
2018-01-28T05:02:58.971Z,29.10
2018-01-28T05:08:27.206Z,23.00
2018-01-28T05:13:55.490Z,26.83
2018-01-28T05:19:23.725Z,31.80
2018-01-28T05:24:51.928Z,27.00
2018-01-28T05:30:20.138Z,24.23
2018-01-28T05:35:48.356Z,31.73
2018-01-28T05:41:16.586Z,31.00
2018-01-28T05:46:44.779Z,30.20
2018-01-28T05:52:14.028Z,31.83
2018-01-28T05:57:43.051Z,26.07
2018-01-28T06:03:12.185Z,34.13
2018-01-28T06:08:40.397Z,25.33
2018-01-28T06:14:10.806Z,30.70
2018-01-28T06:19:39.262Z,25.67
2018-01-28T06:25:07.723Z,27.37
2018-01-28T06:30:38.030Z,27.10
2018-01-28T06:36:07.054Z,27.47
2018-01-28T06:41:35.293Z,34.37
2018-01-28T06:47:03.570Z,27.43
2018-01-28T06:52:31.787Z,24.80
2018-01-28T06:57:59.973Z,33.90
2018-01-28T07:03:32.122Z,28.80
2018-01-28T07:09:00.350Z,26.97
2018-01-28T07:14:28.597Z,24.97
2018-01-28T07:19:56.816Z,26.00
2018-01-28T07:25:25.027Z,23.20
2018-01-28T07:30:53.262Z,23.07
2018-01-28T07:36:21.469Z,20.37
2018-01-28T07:41:49.672Z,24.50
2018-01-28T07:47:17.859Z,25.13
2018-01-28T07:52:49.124Z,23.50
2018-01-28T07:58:18.310Z,22.27
2018-01-28T08:03:48.535Z,21.47
2018-01-28T08:09:19.196Z,22.87
2018-01-28T08:14:47.915Z,17.27
2018-01-28T08:20:23.347Z,20.47
2018-01-28T08:25:53.677Z,22.13
2018-01-28T08:31:23.860Z,20.73
2018-01-28T08:36:53.078Z,20.00
2018-01-28T08:42:22.509Z,16.97
2018-01-28T08:47:51.103Z,21.70
2018-01-28T08:53:19.318Z,16.97
2018-01-28T08:58:51.103Z,17.83
2018-01-28T09:04:20.250Z,14.30
2018-01-28T09:09:49.001Z,16.40
2018-01-28T09:15:17.980Z,15.07
2018-01-28T09:20:47.195Z,18.63
2018-01-28T09:26:17.497Z,13.60
2018-01-28T09:31:46.884Z,14.40
2018-01-28T09:37:16.054Z,13.87
2018-01-28T09:42:45.274Z,17.10
2018-01-28T09:48:14.736Z,13.67
2018-01-28T09:53:43.106Z,14.07
2018-01-28T09:59:11.406Z,17.17
2018-01-28T10:04:40.708Z,15.17
2018-01-28T10:10:10.716Z,15.10
2018-01-28T10:15:39.707Z,17.77
2018-01-28T10:21:08.919Z,13.73
2018-01-28T10:26:37.154Z,14.73
2018-01-28T10:32:05.363Z,15.10
2018-01-28T10:37:35.117Z,14.00
2018-01-28T10:43:05.397Z,13.73
2018-01-28T10:48:33.684Z,14.80
2018-01-28T10:54:01.912Z,12.80
2018-01-28T10:59:30.102Z,10.23
2018-01-28T11:05:01.272Z,12.77
2018-01-28T11:10:29.629Z,12.70
2018-01-28T11:15:57.874Z,10.77
2018-01-28T11:21:29.666Z,10.80
2018-01-28T11:26:57.908Z,7.77
2018-01-28T11:32:26.845Z,7.23
2018-01-28T11:38:02.472Z,7.70
2018-01-28T11:43:30.927Z,7.70
2018-01-28T11:48:59.397Z,6.70
2018-01-28T11:54:28.406Z,7.20
2018-01-28T11:59:56.623Z,11.20
2018-01-28T12:05:25.867Z,5.50
2018-01-28T12:10:54.073Z,7.00
2018-01-28T12:16:24.254Z,6.07
2018-01-28T12:21:52.440Z,6.10
2018-01-28T12:27:20.669Z,9.80
2018-01-28T12:32:48.873Z,7.13
2018-01-28T12:38:17.174Z,6.10
2018-01-28T12:43:57.963Z,6.90
2018-01-28T12:49:30.983Z,6.77
2018-01-28T12:55:00.008Z,5.00
2018-01-28T13:00:33.256Z,5.50
2018-01-28T13:06:04.721Z,7.17
2018-01-28T13:11:32.918Z,4.53
2018-01-28T13:17:08.244Z,5.00
2018-01-28T13:22:37.555Z,7.73
2018-01-28T13:28:09.459Z,12.73
2018-01-28T13:33:38.766Z,5.57
2018-01-28T13:39:07.002Z,3.50
2018-01-28T13:44:35.232Z,4.93
2018-01-28T13:50:03.458Z,3.03
2018-01-28T13:55:31.655Z,5.40
2018-01-28T14:00:59.896Z,2.80
2018-01-28T14:06:28.136Z,3.77
2018-01-28T14:11:56.418Z,2.70
2018-01-28T14:17:24.650Z,4.03
2018-01-28T14:22:52.916Z,2.20
2018-01-28T14:28:21.974Z,3.17
2018-01-28T14:33:51.113Z,5.07
2018-01-28T14:39:19.983Z,4.53
2018-01-28T14:44:49.120Z,1.63
2018-01-28T14:50:17.344Z,2.07
2018-01-28T14:55:46.535Z,2.43
2018-01-28T15:01:15.557Z,2.87
2018-01-28T15:06:44.875Z,1.10
2018-01-28T15:12:13.130Z,1.40
2018-01-28T15:17:41.881Z,1.10
2018-01-28T15:23:10.170Z,1.20
2018-01-28T15:28:38.445Z,1.00
2018-01-28T15:34:06.785Z,1.50
2018-01-28T15:39:35.943Z,1.83
2018-01-28T15:45:08.433Z,1.53
2018-01-28T15:50:42.390Z,1.23
2018-01-28T15:56:11.718Z,4.70
2018-01-28T16:01:40.818Z,2.23
2018-01-28T16:07:09.042Z,2.50
2018-01-28T16:12:42.002Z,2.43
2018-01-28T16:18:11.071Z,1.70
2018-01-28T16:23:39.272Z,3.07
2018-01-28T16:29:08.245Z,1.63
2018-01-28T16:34:38.572Z,3.27
2018-01-28T16:40:06.827Z,2.20
2018-01-28T16:45:38.682Z,2.37
2018-01-28T16:51:06.952Z,1.30
2018-01-28T16:56:35.233Z,2.20
2018-01-28T17:02:04.499Z,3.83
2018-01-28T17:07:34.273Z,2.33
2018-01-28T17:13:03.512Z,2.43
2018-01-28T17:18:31.771Z,2.60
2018-01-28T17:23:59.964Z,7.70
2018-01-28T17:29:28.189Z,6.30
2018-01-28T17:35:00.122Z,4.07
2018-01-28T17:40:32.011Z,2.20
2018-01-28T17:46:00.380Z,3.53
2018-01-28T17:51:28.751Z,2.93
2018-01-28T17:56:56.941Z,2.63
2018-01-28T18:02:25.149Z,3.47
2018-01-28T18:07:56.659Z,6.20
2018-01-28T18:13:24.979Z,2.40
2018-01-28T18:18:53.177Z,4.73
2018-01-28T18:24:21.374Z,3.60
2018-01-28T18:29:50.583Z,2.03
2018-01-28T18:35:19.566Z,2.10
2018-01-28T18:40:49.770Z,2.30
2018-01-28T18:46:17.948Z,2.80
2018-01-28T18:51:46.922Z,2.90
2018-01-28T18:57:16.053Z,2.50
2018-01-28T19:02:44.280Z,2.23
2018-01-28T19:08:23.550Z,5.67
2018-01-28T19:13:52.867Z,2.73
2018-01-28T19:19:23.060Z,4.57
2018-01-28T19:24:51.488Z,4.23
2018-01-28T19:30:29.691Z,2.90
2018-01-28T19:35:58.777Z,2.50
2018-01-28T19:41:26.991Z,3.10
2018-01-28T19:46:55.186Z,2.97
2018-01-28T19:52:23.388Z,3.37
2018-01-28T19:57:54.994Z,3.77
2018-01-28T20:03:23.954Z,1.80
2018-01-28T20:08:53.180Z,3.20
2018-01-28T20:14:22.282Z,2.93
2018-01-28T20:19:50.518Z,3.53
2018-01-28T20:25:18.728Z,3.43
2018-01-28T20:30:47.757Z,2.20
2018-01-28T20:36:16.047Z,2.83
2018-01-28T20:41:44.264Z,2.47
2018-01-28T20:47:12.532Z,2.20
2018-01-28T20:52:41.543Z,2.73
2018-01-28T20:58:09.774Z,1.87
2018-01-28T21:03:39.022Z,2.57
2018-01-28T21:09:08.932Z,4.60
2018-01-28T21:14:37.215Z,4.70
2018-01-28T21:20:05.463Z,2.90
2018-01-28T21:25:33.656Z,2.10
2018-01-28T21:31:02.167Z,2.37
2018-01-28T21:36:30.614Z,2.00
2018-01-28T21:41:59.628Z,5.70
2018-01-28T21:47:27.821Z,3.20
2018-01-28T21:52:55.992Z,2.73
2018-01-28T21:58:26.145Z,2.30
2018-01-28T22:04:05.284Z,2.00
2018-01-28T22:09:35.182Z,1.83
2018-01-28T22:15:08.745Z,2.73
2018-01-28T22:20:36.980Z,3.63
2018-01-28T22:26:05.230Z,4.03
2018-01-28T22:31:34.225Z,3.07
2018-01-28T22:37:02.481Z,2.03
2018-01-28T22:42:34.763Z,3.12
2018-01-28T22:48:02.973Z,5.90
2018-01-28T22:53:31.187Z,2.60
2018-01-28T22:58:59.382Z,2.37
2018-01-28T23:04:28.545Z,2.97
2018-01-28T23:09:56.767Z,2.00
2018-01-28T23:15:24.976Z,3.23
2018-01-28T23:20:53.183Z,3.27
2018-01-28T23:26:22.151Z,2.30
2018-01-28T23:31:51.097Z,2.20
2018-01-28T23:37:38.015Z,2.03
2018-01-28T23:43:08.970Z,2.80
2018-01-28T23:48:37.185Z,2.27
2018-01-28T23:54:05.382Z,3.73
2018-01-28T23:59:33.563Z,2.13
